Estación meteorológica de Montseny - Mas Joan (Vallès Oriental, P.N.del Montseny)

Consulta los datos en tiempo real de la estación meteorológica de Montseny - Mas Joan





Hora UTC 13:50
Temperatura 13.3 ºC
Humedad 81.6 %
Pluja 0.0 mm
Velocidad viento 6.2 km/h
Dirección viento S
Radiación solar 73.2 W/m²

Datos diarios 2026-05-09



Hora UTC (invierno +1h; verano +2h)
Temperatura (ºC) Humedad (%) Velocidad viento (km/h) Precipitación (mm) Radiación solar (W/m²)
Hora UTC Aire Humedad Vel. Dir. Vel. Max Dir. Intent. máx 5 min. Rad. Sol.
00:05 10.7 87.2 3.0 WNW 4.7 WNW 0.0 0.0
00:10 10.7 87.2 3.4 WNW 6.4 NW 0.0 0.0
00:15 10.7 86.0 3.8 NW 6.8 WNW 0.0 0.2
00:20 10.8 85.2 3.0 WNW 4.8 WNW 0.0 0.1
00:25 10.7 86.2 2.2 WNW 3.3 WNW 0.0 0.0
00:30 10.8 86.5 2.3 W 4.2 WNW 0.0 0.1
00:35 10.8 86.8 4.2 NW 5.1 NNW 0.0 0.0
00:40 10.8 85.8 5.1 NW 8.5 NNW 0.0 0.1
00:45 10.9 84.0 3.2 NW 6.7 W 0.0 0.0
00:50 10.9 83.2 3.1 NW 6.6 W 0.0 0.1
00:55 11.0 82.8 3.5 NW 6.1 WNW 0.0 0.1
01:00 11.1 82.4 2.9 WNW 6.3 NW 0.0 0.1
01:05 11.1 83.0 1.5 W 2.8 WNW 0.0 0.0
01:10 11.1 83.3 1.8 W 2.8 W 0.0 0.0
01:15 11.0 83.5 1.6 WSW 2.3 WSW 0.0 0.0
01:20 11.0 83.9 2.0 WSW 3.5 WNW 0.0 0.0
01:25 11.0 84.1 2.7 WNW 4.3 WNW 0.0 0.0
01:30 11.1 82.7 2.6 WNW 5.3 WNW 0.0 0.1
01:35 11.2 81.8 3.1 WNW 6.4 WNW 0.0 0.1
01:40 11.3 81.1 2.9 NW 5.1 WNW 0.0 0.0
01:45 11.3 80.8 2.9 WNW 4.8 WNW 0.0 0.0
01:50 11.3 80.8 2.9 WNW 6.2 WNW 0.0 0.0
01:55 11.2 80.5 5.1 WNW 7.3 WNW 0.0 0.0
02:00 11.0 80.7 3.6 W 6.6 NW 0.0 0.0
02:05 10.8 81.8 2.4 WNW 5.0 WNW 0.0 0.0
02:10 10.7 82.1 3.4 WNW 4.8 WNW 0.0 0.0
02:15 10.8 81.5 3.8 WNW 6.8 WNW 0.0 0.0
02:20 10.8 81.4 3.4 WNW 6.5 W 0.0 0.0
02:25 10.6 81.8 2.4 W 4.9 WNW 0.0 0.0
02:30 10.5 81.9 2.6 W 5.7 NW 0.0 0.0
02:35 10.4 82.5 2.6 WSW 4.6 WNW 0.0 0.0
02:40 10.4 83.0 3.0 W 6.0 WNW 0.0 0.0
02:45 10.5 82.5 2.1 W 3.2 W 0.0 0.0
02:50 10.5 82.2 2.2 WSW 3.2 W 0.0 0.0
02:55 10.3 83.0 2.6 SSW 5.4 SE 0.0 0.0
03:00 10.0 84.7 2.4 SW 4.3 SSW 0.0 0.0
03:05 9.9 85.4 2.3 WSW 3.9 WSW 0.0 0.0
03:10 9.8 86.0 2.3 W 3.2 SW 0.0 0.0
03:15 9.7 86.5 2.5 WSW 3.9 W 0.0 0.0
03:20 9.8 86.9 2.1 WSW 3.1 W 0.0 0.0
03:25 9.8 87.0 2.4 WSW 3.5 WSW 0.0 0.0
03:30 9.7 87.5 2.9 WSW 4.0 WSW 0.0 0.0
03:35 9.8 87.5 2.6 WSW 3.4 WSW 0.0 0.0
03:40 9.9 87.5 2.3 WSW 3.5 W 0.0 0.4
03:45 10.0 87.6 2.4 W 3.3 W 0.0 0.5
03:50 10.1 87.6 2.0 W 2.8 W 0.0 0.2
03:55 10.2 87.6 2.1 W 3.2 W 0.0 0.4
04:00 10.3 87.5 2.1 W 3.2 WSW 0.0 0.7
04:05 10.4 87.2 1.7 WSW 2.7 W 0.0 0.5
04:10 10.4 87.0 1.6 WSW 3.4 WNW 0.0 0.1
04:15 10.4 86.9 3.0 W 4.8 WNW 0.0 0.0
04:20 10.3 86.5 2.2 WSW 3.0 WSW 0.0 0.0
04:25 10.3 86.8 2.4 W 3.3 W 0.0 0.2
04:30 10.3 86.8 1.9 SW 2.9 WSW 0.0 1.3
04:35 10.4 86.9 1.6 WSW 2.6 W 0.0 1.2
04:40 10.5 86.4 1.7 WSW 2.3 WSW 0.0 1.6
04:45 10.6 86.3 1.3 WSW 2.0 WNW 0.0 2.2
04:50 10.6 86.7 1.5 WSW 2.4 WSW 0.0 3.2
04:55 10.7 87.2 1.6 W 2.5 W 0.0 4.9
05:00 10.8 87.5 1.4 W 2.3 W 0.0 5.0
05:05 10.8 87.9 0.6 SSW 1.7 S 0.0 6.2
05:10 10.9 88.3 1.4 SSW 2.7 S 0.0 7.1
05:15 10.8 88.3 1.3 S 2.3 SSE 0.0 5.4
05:20 10.8 88.5 1.1 SW 1.7 SSW 0.0 5.0
05:25 10.8 88.9 1.5 WNW 3.2 WNW 0.0 7.7
05:30 10.8 89.4 2.3 WNW 3.5 WNW 0.0 11.7
05:35 10.9 90.4 2.1 N 2.8 N 0.0 16.6
05:40 10.9 91.2 2.7 NNW 5.4 NNW 0.0 18.3
05:45 10.8 91.1 1.5 W 3.3 NNW 0.0 25.4
05:50 11.0 91.6 1.2 SSW 2.6 SSE 0.0 28.8
05:55 11.2 92.1 2.1 NW 3.9 WNW 0.0 53.0
06:00 11.3 92.1 1.8 NW 3.7 NW 0.0 87.0
06:05 11.4 91.7 1.0 ENE 1.8 SE 0.0 89.2
06:10 11.5 90.9 1.6 SSE 3.0 SSE 0.0 93.8
06:15 11.6 90.4 1.5 SSE 2.6 SSE 0.0 109.1
06:20 11.7 89.7 2.5 SSE 4.0 S 0.0 120.2
06:25 11.8 88.2 2.0 SSE 3.1 SSE 0.0 144.3
06:30 12.0 86.8 1.5 WSW 3.0 WNW 0.0 171.8
06:35 12.3 85.4 1.7 NE 4.1 ESE 0.0 208.1
06:40 12.4 83.4 2.6 SE 5.5 ESE 0.0 222.6
06:45 12.2 83.2 2.5 ESE 4.4 ESE 0.0 227.5
06:50 12.4 83.6 2.5 E 4.5 E 0.0 240.3
06:55 12.5 82.6 2.5 SSE 4.5 ESE 0.0 246.5
07:00 12.5 81.8 2.9 ESE 5.3 E 0.0 265.3
07:05 12.6 82.0 3.0 ESE 6.0 E 0.0 293.9
07:10 12.9 81.9 2.7 SE 6.8 E 0.0 314.2
07:15 13.1 81.9 4.4 SSE 8.4 S 0.0 315.6
07:20 12.9 81.9 6.8 SSE 12.1 S 0.0 337.8
07:25 12.6 83.5 6.7 SSE 12.4 SSE 0.0 329.0
07:30 12.5 85.6 6.6 S 11.6 SSW 0.0 204.0
07:35 12.4 87.9 5.0 SSE 9.9 S 0.0 236.8
07:40 12.5 88.2 3.7 SE 6.8 SSE 0.0 336.3
07:45 12.9 87.8 3.0 ESE 6.7 SE 0.0 401.6
07:50 13.2 85.9 4.2 SE 8.2 SE 0.0 406.5
07:55 13.2 86.0 4.0 SE 12.0 SSE 0.0 401.0
08:00 13.4 85.3 4.8 SSE 9.9 SSE 0.0 434.6
08:05 13.4 84.5 4.9 SSE 9.6 ESE 0.0 467.5
08:10 13.6 83.5 6.4 SSE 11.0 SSE 0.0 501.4
08:15 13.4 82.7 6.3 SSE 14.3 SSE 0.0 418.3
08:20 13.6 82.2 5.5 SSE 10.9 SSE 0.0 568.2
08:25 14.0 80.6 4.7 SE 10.2 SSE 0.0 560.3
08:30 14.9 78.0 3.9 SSE 7.7 SSE 0.0 527.7
08:35 14.9 77.1 4.5 SSE 11.1 SE 0.0 512.9
08:40 15.0 76.5 5.0 SSE 10.5 SE 0.0 505.6
08:45 14.8 77.2 7.7 S 21.2 SSE 0.0 474.9
08:50 14.6 78.3 7.6 S 13.0 S 0.0 411.2
08:55 14.4 78.6 9.3 S 16.6 S 0.0 425.1
09:00 14.3 77.9 8.6 S 16.0 SSW 0.0 408.5
09:05 14.2 77.7 5.9 SSE 11.5 S 0.0 422.2
09:10 14.6 76.2 5.1 SSE 9.3 S 0.0 434.9
09:15 14.7 74.3 5.8 SSE 11.4 S 0.0 511.2
09:20 15.0 73.0 6.6 SSE 11.2 S 0.0 577.2
09:25 15.3 72.4 7.0 SSE 14.5 S 0.0 715.9
09:30 16.0 71.7 4.9 SE 15.1 ENE 0.0 927.0
09:35 16.3 69.4 5.6 SSE 13.1 ESE 0.0 482.1
09:40 15.7 73.7 7.9 S 16.3 S 0.0 551.1
09:45 15.4 74.4 5.8 SSE 14.3 SSW 0.0 513.8
09:50 15.6 73.4 4.5 S 11.2 SSW 0.0 384.4
09:55 15.4 72.2 6.2 S 11.4 S 0.0 453.7
10:00 15.7 70.3 7.5 S 18.2 SSW 0.0 541.9
10:05 15.7 70.4 6.7 S 14.7 SSW 0.0 529.9
10:10 15.6 69.5 7.2 SSE 16.5 SSW 0.0 530.5
10:15 16.0 68.8 5.3 S 14.0 SE 0.0 489.5
10:20 15.8 67.8 6.5 S 12.8 S 0.0 433.8
10:25 15.8 68.5 5.6 S 9.8 S 0.0 438.7
10:30 15.6 69.4 9.2 S 16.6 S 0.0 452.8
10:35 15.3 70.7 6.9 S 18.5 SSE 0.0 307.2
10:40 15.0 71.3 9.5 S 16.1 S 0.0 267.4
10:45 14.7 73.4 6.3 S 13.0 S 0.0 301.3
10:50 14.8 72.7 6.1 S 15.2 S 0.0 398.1
10:55 15.2 72.7 4.9 SSE 8.7 S 0.0 350.9
11:00 14.9 73.3 7.0 S 15.8 S 0.0 303.6
11:05 14.7 75.8 6.8 S 16.3 S 0.0 256.6
11:10 14.2 78.5 7.2 S 15.4 S 0.0 183.8
11:15 13.8 80.1 6.8 S 17.9 S 0.0 112.8
11:20 13.6 79.8 7.3 S 15.7 S 0.0 109.9
11:25 13.6 80.0 5.9 S 13.0 S 0.0 144.5
11:30 13.6 79.5 7.7 S 12.9 S 0.0 185.2
11:35 13.6 80.4 6.3 S 12.2 SSE 0.0 122.6
11:40 13.5 80.1 6.7 S 14.0 S 0.0 113.1
11:45 13.4 80.3 5.6 S 12.0 SSE 0.0 139.2
11:50 13.6 80.0 3.8 S 9.3 S 0.0 139.7
11:55 13.6 80.1 6.6 S 13.8 SSE 0.0 172.9
12:00 13.6 80.5 5.2 SSE 9.6 SSW 0.0 214.5
12:05 14.0 78.8 3.8 S 11.5 SSW 0.0 313.5
12:10 14.4 75.8 3.9 SSE 10.8 SSE 0.0 364.1
12:15 14.4 74.0 3.9 SSE 7.9 SSE 0.0 331.3
12:20 14.3 74.6 5.6 S 14.5 S 0.0 278.3
12:25 14.3 74.5 6.4 S 11.4 S 0.0 247.7
12:30 14.2 74.8 7.6 S 15.4 SSE 0.0 248.1
12:35 14.3 73.3 5.0 S 10.0 S 0.0 222.0
12:40 14.3 73.0 5.8 S 12.5 SSW 0.0 187.7
12:45 14.2 74.1 5.2 S 11.9 S 0.0 176.4
12:50 14.0 76.0 5.9 S 12.4 S 0.0 175.3
12:55 13.9 78.5 3.6 S 9.2 W 0.0 164.9
13:00 13.9 78.4 2.2 S 4.8 SSE 0.0 149.9
13:05 13.9 78.0 2.2 SSE 5.7 S 0.0 164.1
13:10 13.9 77.8 3.8 SSE 6.2 S 0.0 181.4
13:15 14.1 77.6 3.9 SSE 10.9 S 0.0 188.4
13:20 14.0 78.2 6.6 S 13.1 S 0.0 195.0
13:25 13.8 79.7 4.4 S 8.8 SSW 0.0 179.4
13:30 13.8 80.3 3.1 S 5.9 S 0.0 163.5
13:35 13.8 79.7 5.5 S 12.2 SSW 0.0 123.9
13:40 13.7 80.2 5.0 S 8.5 S 0.0 95.6
13:45 13.5 81.2 7.0 SSE 13.2 SSE 0.0 117.0
13:50 13.3 81.6 6.2 S 10.8 S 0.0 73.2
Máxima 16.3 92.1 9.5 S 21.2 SSE 0.0 927.0
Mínima 9.7 67.8
Total 0.0